Time;durP1;ratioP1;P1;durP2;ratioP2;P2;SDS_P1;SDS_P2;PMS_P1;PMS_P2;Temp;Humidity;BMP_temperature;BMP_pressure;BME280_temperature;BME280_humidity;BME280_pressure;Samples;Min_cycle;Max_cycle;Signal;HPM_P1;HPM_P2
2023/06/20 00:00:10;;;;;;;;;;;;;;;23.19;49.18;99527.94;4468435;32;33401;-79
2023/06/20 00:02:44;;;;;;;;;;;;;;;23.10;49.62;99523.28;4448270;32;33349;-79
2023/06/20 00:05:13;;;;;;;;;;;;;;;23.06;49.65;99524.44;4464933;32;34096;-80
2023/06/20 00:07:41;;;;;;;;;;;;;;;23.03;49.89;99527.31;4467983;32;33595;-79
2023/06/20 00:10:11;;;;;;;;;;;;;;;23.11;49.63;99524.97;4475730;32;34162;-81
2023/06/20 00:12:41;;;;;;;;;;;;;;;23.04;49.87;99520.22;4472344;32;33719;-80
2023/06/20 00:15:11;;;;;;;;;;;;;;;22.98;50.15;99529.41;4474296;32;34182;-79
2023/06/20 00:17:41;;;;;;;;;;;;;;;22.96;50.19;99533.94;4473995;32;34027;-80
2023/06/20 00:20:10;;;;;;;;;;;;;;;23.02;49.90;99530.88;4474818;32;34325;-79
2023/06/20 00:22:39;;;;;;;;;;;;;;;22.98;50.27;99537.34;4478299;32;34855;-81
2023/06/20 00:25:08;;;;;;;;;;;;;;;22.98;50.55;99538.19;4460196;32;34865;-79
2023/06/20 00:27:38;;;;;;;;;;;;;;;22.78;51.28;99534.22;4475642;31;32945;-81
2023/06/20 00:30:07;;;;;;;;;;;;;;;22.74;51.35;99537.16;4476011;32;33677;-80
2023/06/20 00:32:37;;;;;;;;;;;;;;;22.85;51.13;99534.63;4481351;32;33935;-79
2023/06/20 00:35:06;;;;;;;;;;;;;;;22.77;51.13;99529.84;4475662;32;34752;-78
2023/06/20 00:37:38;;;;;;;;;;;;;;;22.77;51.25;99536.94;4476829;32;33402;-79
2023/06/20 00:40:07;;;;;;;;;;;;;;;22.71;51.13;99532.91;4478036;32;34007;-79
2023/06/20 00:42:36;;;;;;;;;;;;;;;22.63;51.46;99529.91;4478532;32;34254;-80
2023/06/20 00:45:22;;;;;;;;;;;;;;;22.66;51.45;99534.16;4483336;32;33916;-79
2023/06/20 00:47:53;;;;;;;;;;;;;;;22.48;51.85;99531.75;4478272;32;33125;-81
2023/06/20 00:50:26;;;;;;;;;;;;;;;22.50;51.70;99536.97;4477983;32;33427;-79
2023/06/20 00:53:00;;;;;;;;;;;;;;;22.68;51.64;99533.09;4478112;32;33618;-79
2023/06/20 00:55:31;;;;;;;;;;;;;;;22.67;51.45;99528.78;4481178;32;33962;-80
2023/06/20 00:58:00;;;;;;;;;;;;;;;22.61;51.94;99533.59;4483380;32;33618;-79
2023/06/20 01:00:33;;;;;;;;;;;;;;;22.59;52.24;99533.69;4477275;32;34922;-80
2023/06/20 01:03:06;;;;;;;;;;;;;;;22.45;52.38;99531.13;4477933;32;34843;-79
2023/06/20 01:05:36;;;;;;;;;;;;;;;22.45;52.51;99536.41;4470871;32;34157;-78
2023/06/20 01:08:08;;;;;;;;;;;;;;;22.44;52.38;99535.53;4471362;32;33329;-79
2023/06/20 01:10:41;;;;;;;;;;;;;;;22.34;52.36;99540.56;4473265;32;33860;-79
2023/06/20 01:13:12;;;;;;;;;;;;;;;22.23;52.64;99539.56;4478204;32;35011;-79
2023/06/20 01:15:41;;;;;;;;;;;;;;;22.41;52.17;99541.03;4469452;32;34168;-79
2023/06/20 01:18:14;;;;;;;;;;;;;;;22.30;52.51;99540.88;4468472;32;33430;-78
2023/06/20 01:20:44;;;;;;;;;;;;;;;22.33;52.57;99535.41;4482875;32;34705;-80
2023/06/20 01:23:14;;;;;;;;;;;;;;;22.34;52.59;99542.38;4476440;32;34542;-79
2023/06/20 01:25:46;;;;;;;;;;;;;;;22.55;52.01;99532.22;4477620;32;34227;-79
2023/06/20 01:28:18;;;;;;;;;;;;;;;22.32;52.90;99538.97;4477633;31;34279;-79
2023/06/20 01:30:48;;;;;;;;;;;;;;;22.25;52.88;99541.16;4479497;32;34988;-81
2023/06/20 01:33:17;;;;;;;;;;;;;;;22.37;53.00;99544.81;4483729;32;34863;-79
2023/06/20 01:35:45;;;;;;;;;;;;;;;22.20;53.16;99537.09;4477462;32;34823;-80
2023/06/20 01:38:15;;;;;;;;;;;;;;;21.91;53.85;99552.97;4477276;32;33046;-81
2023/06/20 01:40:46;;;;;;;;;;;;;;;21.58;55.23;99546.22;4474979;32;34683;-81
2023/06/20 01:43:15;;;;;;;;;;;;;;;22.17;53.32;99538.97;4467758;32;34255;-78
2023/06/20 01:45:44;;;;;;;;;;;;;;;21.73;55.04;99549.69;4463360;32;34468;-80
2023/06/20 01:48:13;;;;;;;;;;;;;;;22.16;53.41;99542.59;4477725;32;33403;-81
2023/06/20 01:50:41;;;;;;;;;;;;;;;22.21;53.40;99539.69;4477324;32;33542;-79
2023/06/20 01:53:18;;;;;;;;;;;;;;;22.12;53.65;99538.44;4480292;32;33668;-79
2023/06/20 01:55:47;;;;;;;;;;;;;;;22.12;53.79;99527.84;4483250;32;34776;-79
2023/06/20 01:58:16;;;;;;;;;;;;;;;22.22;53.37;99532.59;4477546;32;33270;-81
2023/06/20 02:00:45;;;;;;;;;;;;;;;22.22;53.23;99519.38;4477297;32;33839;-79
2023/06/20 02:03:14;;;;;;;;;;;;;;;22.13;53.58;99520.78;4477435;32;34192;-81
2023/06/20 02:05:43;;;;;;;;;;;;;;;22.00;53.78;99523.34;4471096;32;34088;-80
2023/06/20 02:08:11;;;;;;;;;;;;;;;22.14;53.47;99527.78;4472087;32;33051;-79
2023/06/20 02:10:42;;;;;;;;;;;;;;;22.11;53.30;99520.91;4460695;32;33827;-80
2023/06/20 02:13:10;;;;;;;;;;;;;;;22.17;53.25;99523.13;4462150;32;34784;-79
2023/06/20 02:15:40;;;;;;;;;;;;;;;22.05;53.64;99523.06;4466794;32;32978;-79
2023/06/20 02:18:11;;;;;;;;;;;;;;;22.12;53.59;99530.50;4468647;32;34124;-79
2023/06/20 02:20:39;;;;;;;;;;;;;;;22.04;54.12;99527.50;4461158;32;33721;-78
2023/06/20 02:23:09;;;;;;;;;;;;;;;22.02;54.06;99528.56;4461796;32;34181;-80
2023/06/20 02:25:40;;;;;;;;;;;;;;;22.03;53.84;99541.66;4465595;32;34201;-78
2023/06/20 02:28:10;;;;;;;;;;;;;;;21.90;54.34;99538.94;4478614;32;33648;-81
2023/06/20 02:30:39;;;;;;;;;;;;;;;21.79;54.88;99543.19;4461722;32;34888;-78
2023/06/20 02:33:08;;;;;;;;;;;;;;;21.79;54.55;99545.81;4461047;32;34820;-81
2023/06/20 02:35:38;;;;;;;;;;;;;;;21.84;54.51;99547.25;4461060;32;33483;-79
2023/06/20 02:38:07;;;;;;;;;;;;;;;21.79;54.53;99554.59;4467115;32;33123;-80
2023/06/20 02:40:37;;;;;;;;;;;;;;;21.68;54.90;99560.53;4460418;32;33646;-79
2023/06/20 02:43:08;;;;;;;;;;;;;;;21.73;54.79;99558.47;4468965;32;34631;-79
2023/06/20 02:45:38;;;;;;;;;;;;;;;21.74;54.61;99554.88;4469046;32;34855;-80
2023/06/20 02:48:17;;;;;;;;;;;;;;;21.75;54.53;99550.47;4467187;32;34271;-78
2023/06/20 02:50:48;;;;;;;;;;;;;;;21.31;55.65;99554.81;4475595;32;34726;-79
2023/06/20 02:53:20;;;;;;;;;;;;;;;21.50;55.38;99557.25;4461644;32;34799;-79
2023/06/20 02:55:51;;;;;;;;;;;;;;;21.56;55.42;99552.53;4462221;32;34675;-80
2023/06/20 02:58:21;;;;;;;;;;;;;;;21.61;55.46;99551.31;4454051;32;32985;-80
2023/06/20 03:00:52;;;;;;;;;;;;;;;21.60;55.39;99546.97;4461210;32;34940;-80
2023/06/20 03:03:22;;;;;;;;;;;;;;;21.56;55.69;99561.28;4468857;32;35045;-78
2023/06/20 03:05:56;;;;;;;;;;;;;;;21.58;55.72;99566.50;4460292;32;33364;-78
2023/06/20 03:08:26;;;;;;;;;;;;;;;21.62;55.75;99567.97;4465218;32;32968;-81
2023/06/20 03:10:55;;;;;;;;;;;;;;;21.47;56.18;99567.13;4476770;32;34184;-81
2023/06/20 03:13:24;;;;;;;;;;;;;;;21.60;55.98;99568.09;4483089;32;33722;-81
2023/06/20 03:15:55;;;;;;;;;;;;;;;21.60;55.83;99569.84;4477086;32;34420;-80
2023/06/20 03:18:25;;;;;;;;;;;;;;;21.58;56.09;99569.97;4477259;32;34210;-81
2023/06/20 03:20:54;;;;;;;;;;;;;;;21.54;56.25;99575.53;4476904;32;33639;-80
2023/06/20 03:23:23;;;;;;;;;;;;;;;21.59;56.07;99576.94;4477369;32;35952;-79
2023/06/20 03:25:53;;;;;;;;;;;;;;;21.51;56.37;99577.41;4482266;32;33746;-79
2023/06/20 03:28:22;;;;;;;;;;;;;;;21.50;56.53;99578.34;4477126;32;33009;-79
2023/06/20 03:30:51;;;;;;;;;;;;;;;21.61;56.43;99582.13;4476388;32;34612;-80
2023/06/20 03:33:24;;;;;;;;;;;;;;;21.64;56.50;99582.78;4476800;32;35113;-80
2023/06/20 03:35:54;;;;;;;;;;;;;;;21.64;56.50;99587.22;4466666;32;34352;-80
2023/06/20 03:38:22;;;;;;;;;;;;;;;21.77;56.41;99584.66;4463799;32;33317;-80
2023/06/20 03:40:51;;;;;;;;;;;;;;;21.83;56.15;99587.78;4460886;32;34278;-80
2023/06/20 03:43:20;;;;;;;;;;;;;;;21.70;56.58;99595.63;4461140;32;34683;-80
2023/06/20 03:45:49;;;;;;;;;;;;;;;21.83;56.31;99589.59;4465244;32;34888;-79
2023/06/20 03:48:19;;;;;;;;;;;;;;;21.93;56.00;99591.56;4466547;32;33956;-81
2023/06/20 03:50:49;;;;;;;;;;;;;;;21.92;55.60;99597.81;4463363;32;35636;-78
2023/06/20 03:53:18;;;;;;;;;;;;;;;21.92;55.63;99603.09;4476709;32;34070;-78
2023/06/20 03:55:47;;;;;;;;;;;;;;;22.06;55.43;99591.66;4477030;32;34508;-79
2023/06/20 03:58:16;;;;;;;;;;;;;;;22.17;55.09;99597.09;4482286;32;34035;-80
2023/06/20 04:00:46;;;;;;;;;;;;;;;22.17;54.88;99591.81;4479974;32;33763;-79
2023/06/20 04:03:15;;;;;;;;;;;;;;;22.07;55.25;99596.00;4481583;32;34197;-78
2023/06/20 04:05:44;;;;;;;;;;;;;;;22.35;54.70;99599.59;4483878;32;34512;-79
2023/06/20 04:08:14;;;;;;;;;;;;;;;22.47;54.22;99596.16;4482862;32;33737;-80
2023/06/20 04:10:43;;;;;;;;;;;;;;;22.81;53.16;99596.63;4481776;32;34324;-79
2023/06/20 04:13:11;;;;;;;;;;;;;;;22.90;53.11;99588.06;4467664;32;33616;-80
2023/06/20 04:15:43;;;;;;;;;;;;;;;22.90;53.21;99593.34;4465553;32;34240;-79
2023/06/20 04:18:12;;;;;;;;;;;;;;;23.37;52.47;99589.37;4465746;32;33380;-81
2023/06/20 04:20:42;;;;;;;;;;;;;;;24.10;50.24;99587.91;4470864;32;33763;-79
2023/06/20 04:23:11;;;;;;;;;;;;;;;24.56;49.04;99584.63;4473510;32;33915;-80
2023/06/20 04:25:41;;;;;;;;;;;;;;;25.05;47.55;99577.50;4481045;32;34070;-81
2023/06/20 04:28:10;;;;;;;;;;;;;;;25.62;46.49;99589.16;4481283;31;34238;-80
2023/06/20 04:30:40;;;;;;;;;;;;;;;25.70;45.15;99586.72;4487228;32;34275;-79
2023/06/20 04:33:09;;;;;;;;;;;;;;;25.12;46.67;99584.03;4481270;32;33642;-79
2023/06/20 04:35:40;;;;;;;;;;;;;;;25.76;45.66;99595.06;4481319;32;34147;-81
2023/06/20 04:38:12;;;;;;;;;;;;;;;26.09;44.41;99588.09;4446813;32;1084894;-79
2023/06/20 04:40:42;;;;;;;;;;;;;;;25.52;46.03;99587.19;4481915;32;33215;-79
2023/06/20 04:43:11;;;;;;;;;;;;;;;25.50;45.87;99591.78;4486574;32;34571;-78
2023/06/20 04:45:40;;;;;;;;;;;;;;;25.51;46.10;99593.44;4481402;32;34167;-81
2023/06/20 04:48:09;;;;;;;;;;;;;;;25.19;47.73;99595.91;4468337;32;34230;-81
2023/06/20 04:50:38;;;;;;;;;;;;;;;25.34;47.54;99596.56;4476977;32;34397;-80
2023/06/20 04:53:07;;;;;;;;;;;;;;;24.81;48.92;99590.78;4486295;32;34347;-80
2023/06/20 04:55:38;;;;;;;;;;;;;;;25.09;47.62;99593.06;4481090;32;34262;-80
2023/06/20 04:58:09;;;;;;;;;;;;;;;25.37;47.20;99596.34;4480432;32;34093;-80
2023/06/20 05:00:41;;;;;;;;;;;;;;;25.69;46.32;99603.66;4480739;32;34412;-79
2023/06/20 05:03:10;;;;;;;;;;;;;;;25.77;45.82;99607.38;4480152;32;35157;-81
2023/06/20 05:05:40;;;;;;;;;;;;;;;26.11;44.21;99603.94;4485048;32;34046;-80
2023/06/20 05:08:09;;;;;;;;;;;;;;;26.42;44.03;99604.16;4479224;32;33564;-79
2023/06/20 05:10:37;;;;;;;;;;;;;;;26.51;43.96;99608.72;4480776;32;33718;-79
2023/06/20 05:13:06;;;;;;;;;;;;;;;26.89;43.39;99604.75;4476855;32;33882;-80
2023/06/20 05:15:37;;;;;;;;;;;;;;;26.88;43.10;99611.06;4482646;32;34794;-79
2023/06/20 05:18:06;;;;;;;;;;;;;;;26.89;43.17;99607.41;4477982;32;32635;-79
2023/06/20 05:20:34;;;;;;;;;;;;;;;26.39;44.16;99613.22;4477917;32;33385;-80
2023/06/20 05:23:02;;;;;;;;;;;;;;;26.87;43.46;99604.91;4477106;32;35021;-80
2023/06/20 05:25:32;;;;;;;;;;;;;;;26.68;43.90;99599.41;4469968;32;34009;-80
2023/06/20 05:28:00;;;;;;;;;;;;;;;27.07;43.27;99611.22;4482063;32;33192;-81
2023/06/20 05:30:32;;;;;;;;;;;;;;;26.58;44.52;99605.47;4477723;32;33552;-79
2023/06/20 05:33:02;;;;;;;;;;;;;;;26.29;45.76;99607.78;4475699;32;34879;-79
2023/06/20 05:35:31;;;;;;;;;;;;;;;26.79;44.58;99608.16;4473433;32;34288;-80
2023/06/20 05:38:00;;;;;;;;;;;;;;;25.49;47.65;99616.66;4468935;32;32923;-79
2023/06/20 05:40:29;;;;;;;;;;;;;;;26.66;45.24;99610.16;4477633;32;34871;-79
2023/06/20 05:42:57;;;;;;;;;;;;;;;26.67;45.40;99617.16;4477553;32;34234;-79
2023/06/20 05:45:26;;;;;;;;;;;;;;;26.05;46.66;99628.34;4478033;32;34718;-82
2023/06/20 05:47:55;;;;;;;;;;;;;;;26.08;47.05;99623.62;4483342;32;33321;-80
2023/06/20 05:50:25;;;;;;;;;;;;;;;26.75;45.83;99629.88;4477268;32;34828;-79
2023/06/20 05:52:54;;;;;;;;;;;;;;;26.58;46.10;99625.91;4477734;32;34761;-81
2023/06/20 05:55:23;;;;;;;;;;;;;;;26.64;45.82;99630.72;4477732;32;33826;-79
2023/06/20 05:57:52;;;;;;;;;;;;;;;27.00;45.13;99618.03;4477445;32;34063;-81
2023/06/20 06:00:21;;;;;;;;;;;;;;;26.98;45.01;99622.63;4483507;32;34921;-79
2023/06/20 06:02:50;;;;;;;;;;;;;;;26.97;44.71;99627.13;4477679;32;34655;-81
2023/06/20 06:05:19;;;;;;;;;;;;;;;26.48;45.67;99630.22;4475932;32;33917;-79
2023/06/20 06:07:49;;;;;;;;;;;;;;;26.26;45.78;99629.28;4467222;32;34489;-81
2023/06/20 06:10:19;;;;;;;;;;;;;;;26.11;46.21;99627.84;4481006;32;33903;-81
2023/06/20 06:12:49;;;;;;;;;;;;;;;26.66;45.05;99633.28;4476868;32;34354;-81
2023/06/20 06:15:17;;;;;;;;;;;;;;;26.18;46.20;99631.72;4476973;32;33624;-81
2023/06/20 06:17:46;;;;;;;;;;;;;;;25.89;46.75;99636.66;4474497;32;33174;-79
2023/06/20 06:20:18;;;;;;;;;;;;;;;26.17;46.52;99635.34;4474555;32;34668;-79
2023/06/20 06:22:47;;;;;;;;;;;;;;;26.26;46.22;99631.94;4482076;32;35017;-80
2023/06/20 06:25:18;;;;;;;;;;;;;;;26.64;45.17;99630.72;4476525;32;34274;-81
2023/06/20 06:27:48;;;;;;;;;;;;;;;26.47;45.15;99624.06;4476882;32;33091;-79
2023/06/20 06:30:16;;;;;;;;;;;;;;;26.75;44.67;99645.84;4476462;32;33714;-80
2023/06/20 06:32:47;;;;;;;;;;;;;;;26.59;44.34;99646.22;4482965;32;33846;-79
2023/06/20 06:35:22;;;;;;;;;;;;;;;26.74;44.30;99655.63;4477272;32;35080;-81
2023/06/20 06:37:52;;;;;;;;;;;;;;;26.72;44.07;99651.37;4476957;32;33468;-79
2023/06/20 06:40:22;;;;;;;;;;;;;;;26.66;44.68;99658.06;4476974;32;34042;-81
2023/06/20 06:42:51;;;;;;;;;;;;;;;27.27;43.58;99646.88;4476315;32;33304;-81
2023/06/20 06:45:19;;;;;;;;;;;;;;;26.96;44.00;99641.38;4467451;32;35132;-81
2023/06/20 06:47:48;;;;;;;;;;;;;;;26.92;44.09;99639.97;4478663;32;33239;-81
2023/06/20 06:50:17;;;;;;;;;;;;;;;26.98;44.04;99649.25;4473502;32;34412;-79
2023/06/20 06:52:46;;;;;;;;;;;;;;;26.63;44.37;99642.34;4475546;32;35529;-82
2023/06/20 06:55:15;;;;;;;;;;;;;;;27.04;43.87;99646.09;4481663;32;34430;-81
2023/06/20 06:57:45;;;;;;;;;;;;;;;27.08;43.58;99644.88;4466707;32;34035;-80
2023/06/20 07:00:14;;;;;;;;;;;;;;;27.05;43.79;99641.63;4465114;32;34357;-81
2023/06/20 07:02:44;;;;;;;;;;;;;;;27.15;42.78;99640.72;4459311;32;34153;-80
2023/06/20 07:05:12;;;;;;;;;;;;;;;27.50;42.02;99647.62;4461301;32;33867;-81
2023/06/20 07:07:41;;;;;;;;;;;;;;;27.11;42.29;99654.41;4472538;32;32973;-81
2023/06/20 07:10:10;;;;;;;;;;;;;;;26.85;43.87;99654.75;4463809;32;34208;-79
2023/06/20 07:12:39;;;;;;;;;;;;;;;27.54;42.33;99649.03;4467734;32;34655;-82
2023/06/20 07:15:10;;;;;;;;;;;;;;;27.25;43.28;99651.47;4466319;32;34529;-81
2023/06/20 07:17:39;;;;;;;;;;;;;;;27.34;42.04;99661.38;4467535;32;32985;-81
2023/06/20 07:20:10;;;;;;;;;;;;;;;26.94;42.69;99663.78;4474380;32;33492;-81
2023/06/20 07:22:38;;;;;;;;;;;;;;;26.95;43.58;99662.84;4472295;32;33362;-82
2023/06/20 07:25:08;;;;;;;;;;;;;;;27.69;42.39;99662.91;4467538;32;34110;-81
2023/06/20 07:27:37;;;;;;;;;;;;;;;27.81;42.59;99667.19;4444348;32;33375;-79
2023/06/20 07:30:06;;;;;;;;;;;;;;;26.66;43.27;99675.84;4443839;32;34608;-81
2023/06/20 07:32:36;;;;;;;;;;;;;;;27.16;42.65;99678.84;4442836;32;33445;-79
2023/06/20 07:35:05;;;;;;;;;;;;;;;27.40;41.65;99671.53;4443589;32;33573;-82
2023/06/20 07:37:34;;;;;;;;;;;;;;;27.47;40.69;99677.16;4443663;32;34251;-80
2023/06/20 07:40:06;;;;;;;;;;;;;;;27.49;41.21;99679.72;4450108;32;33487;-80
2023/06/20 07:42:34;;;;;;;;;;;;;;;27.52;41.38;99685.66;4443422;32;34763;-79
2023/06/20 07:45:03;;;;;;;;;;;;;;;27.30;41.52;99681.25;4444707;32;34577;-82
2023/06/20 07:47:32;;;;;;;;;;;;;;;27.53;41.70;99673.16;4445524;32;33431;-79
2023/06/20 07:50:03;;;;;;;;;;;;;;;27.80;41.41;99673.47;4449764;32;34262;-79
2023/06/20 07:52:33;;;;;;;;;;;;;;;28.04;41.14;99681.22;4443794;32;33854;-81
2023/06/20 07:55:03;;;;;;;;;;;;;;;27.99;40.77;99680.78;4443007;32;33759;-79
2023/06/20 07:57:43;;;;;;;;;;;;;;;28.43;40.75;99681.37;4443626;32;33238;-80
2023/06/20 08:00:13;;;;;;;;;;;;;;;28.46;40.47;99691.84;4443388;32;34298;-80
2023/06/20 08:02:42;;;;;;;;;;;;;;;28.42;41.11;99685.06;4448596;32;34747;-79
2023/06/20 08:05:12;;;;;;;;;;;;;;;28.29;39.90;99687.09;4443323;32;34226;-80
2023/06/20 08:07:41;;;;;;;;;;;;;;;28.17;39.55;99680.16;4438642;32;32577;-81
2023/06/20 08:10:12;;;;;;;;;;;;;;;28.72;39.65;99686.00;4440392;32;34819;-80
2023/06/20 08:12:41;;;;;;;;;;;;;;;28.71;40.06;99684.34;4446466;32;34128;-81
2023/06/20 08:15:10;;;;;;;;;;;;;;;28.86;38.70;99687.47;4448495;32;34383;-81
2023/06/20 08:17:39;;;;;;;;;;;;;;;28.97;38.60;99686.47;4444215;32;33560;-80
2023/06/20 08:20:09;;;;;;;;;;;;;;;29.28;38.75;99680.06;4442983;32;33926;-80
2023/06/20 08:22:40;;;;;;;;;;;;;;;28.96;38.87;99680.28;4444059;32;34741;-81
2023/06/20 08:25:09;;;;;;;;;;;;;;;28.87;38.88;99681.13;4447433;32;33911;-80
2023/06/20 08:27:38;;;;;;;;;;;;;;;29.12;39.25;99685.12;4444852;32;34268;-82
2023/06/20 08:30:07;;;;;;;;;;;;;;;29.12;38.65;99677.12;4440923;32;34716;-82
2023/06/20 08:32:36;;;;;;;;;;;;;;;29.03;39.57;99688.59;4444999;32;34385;-80
2023/06/20 08:35:08;;;;;;;;;;;;;;;29.23;38.77;99682.31;4449494;32;34902;-82
2023/06/20 08:37:37;;;;;;;;;;;;;;;29.10;38.08;99687.09;4446383;32;34937;-80
2023/06/20 08:40:09;;;;;;;;;;;;;;;29.63;36.92;99678.66;4442971;32;33106;-81
2023/06/20 08:42:38;;;;;;;;;;;;;;;29.81;37.91;99676.09;4441072;32;34240;-80
2023/06/20 08:45:08;;;;;;;;;;;;;;;28.90;38.98;99678.19;4442546;32;32295;-80
2023/06/20 08:47:36;;;;;;;;;;;;;;;29.41;38.28;99681.63;4448174;32;33952;-79
2023/06/20 08:50:05;;;;;;;;;;;;;;;29.04;39.14;99677.75;4442462;32;34644;-80
2023/06/20 08:52:36;;;;;;;;;;;;;;;28.93;39.72;99676.06;4444513;32;34692;-82
2023/06/20 08:55:05;;;;;;;;;;;;;;;29.13;38.52;99671.63;4446463;32;33443;-81
2023/06/20 08:57:35;;;;;;;;;;;;;;;29.66;37.68;99667.69;4444179;32;31906;-81
2023/06/20 09:00:11;;;;;;;;;;;;;;;29.85;37.58;99676.66;4449172;32;35604;-80
2023/06/20 09:02:39;;;;;;;;;;;;;;;30.13;37.40;99672.22;4447496;32;34303;-81
2023/06/20 09:05:08;;;;;;;;;;;;;;;30.03;37.34;99666.88;4446464;32;34999;-82
2023/06/20 09:07:37;;;;;;;;;;;;;;;29.92;37.45;99667.09;4446593;32;33654;-79
2023/06/20 09:10:07;;;;;;;;;;;;;;;30.29;36.36;99671.63;4445562;32;34612;-77
2023/06/20 09:12:54;;;;;;;;;;;;;;;30.16;37.00;99667.41;4443205;32;34807;-79
2023/06/20 09:15:24;;;;;;;;;;;;;;;30.19;36.42;99676.97;4437902;32;34658;-80
2023/06/20 09:17:53;;;;;;;;;;;;;;;30.78;35.50;99672.19;4446907;32;32932;-79
2023/06/20 09:20:25;;;;;;;;;;;;;;;30.27;35.63;99670.91;4443304;32;33945;-78
2023/06/20 09:22:54;;;;;;;;;;;;;;;31.08;33.72;99668.38;4447535;32;34916;-78
2023/06/20 09:25:23;;;;;;;;;;;;;;;30.60;35.61;99681.03;4445768;32;34417;-78
2023/06/20 09:27:53;;;;;;;;;;;;;;;31.39;33.91;99671.53;4470507;32;33433;-78
2023/06/20 09:30:21;;;;;;;;;;;;;;;31.63;32.81;99670.88;4470149;32;33767;-79
2023/06/20 09:32:55;;;;;;;;;;;;;;;31.95;33.48;99676.66;4476539;32;33645;-78
2023/06/20 09:35:23;;;;;;;;;;;;;;;32.16;31.86;99679.81;4465770;32;34192;-79
2023/06/20 09:37:52;;;;;;;;;;;;;;;31.32;32.54;99678.47;4474421;32;33024;-78
2023/06/20 09:40:21;;;;;;;;;;;;;;;31.47;31.99;99662.72;4469569;32;34214;-78
2023/06/20 09:42:50;;;;;;;;;;;;;;;31.89;31.77;99673.59;4461837;32;33934;-78
2023/06/20 09:45:19;;;;;;;;;;;;;;;31.53;31.43;99671.97;4469091;32;33776;-80
2023/06/20 09:47:47;;;;;;;;;;;;;;;31.67;31.21;99674.09;4477375;32;33633;-78
2023/06/20 09:50:19;;;;;;;;;;;;;;;32.12;31.02;99674.91;4477700;32;33702;-78
2023/06/20 09:52:53;;;;;;;;;;;;;;;31.98;31.69;99673.66;4476729;32;34038;-78
2023/06/20 09:55:22;;;;;;;;;;;;;;;32.33;30.31;99675.38;4470681;32;34188;-79
2023/06/20 09:57:51;;;;;;;;;;;;;;;32.61;30.61;99683.22;4466241;32;34299;-78
2023/06/20 10:00:22;;;;;;;;;;;;;;;32.70;30.17;99674.19;4477536;32;34630;-78
2023/06/20 10:02:51;;;;;;;;;;;;;;;32.96;29.32;99682.16;4468354;32;34269;-79
2023/06/20 10:05:22;;;;;;;;;;;;;;;32.86;28.97;99681.44;4467859;32;34100;-78
2023/06/20 10:07:51;;;;;;;;;;;;;;;32.89;28.17;99671.22;4476098;32;32678;-78
2023/06/20 10:10:20;;;;;;;;;;;;;;;32.66;28.56;99668.28;4447909;32;33351;-78
2023/06/20 10:12:49;;;;;;;;;;;;;;;33.01;28.60;99665.50;4462442;32;34350;-78
2023/06/20 10:15:18;;;;;;;;;;;;;;;33.25;27.40;99659.34;4463822;32;34111;-79
2023/06/20 10:17:47;;;;;;;;;;;;;;;33.09;28.79;99665.56;4471166;32;34048;-80
2023/06/20 10:20:28;;;;;;;;;;;;;;;33.26;28.46;99656.50;4459396;32;33327;-79
2023/06/20 10:22:59;;;;;;;;;;;;;;;33.52;27.15;99660.88;4470713;32;34279;-79
2023/06/20 10:25:28;;;;;;;;;;;;;;;33.53;25.63;99666.06;4467133;32;34224;-80
2023/06/20 10:27:58;;;;;;;;;;;;;;;33.75;28.24;99663.72;4470549;32;33418;-79
2023/06/20 10:30:45;;;;;;;;;;;;;;;33.77;27.58;99656.31;4472098;32;33905;-78
2023/06/20 10:33:14;;;;;;;;;;;;;;;33.43;26.92;99662.72;4464214;32;35014;-79
2023/06/20 10:35:50;;;;;;;;;;;;;;;33.67;26.23;99669.12;4472880;32;33742;-80
2023/06/20 10:38:20;;;;;;;;;;;;;;;33.77;26.12;99659.00;4473010;32;33413;-78
2023/06/20 10:41:01;;;;;;;;;;;;;;;34.26;25.81;99653.50;4467010;32;31493;-79
2023/06/20 10:43:30;;;;;;;;;;;;;;;34.27;25.85;99651.69;4477674;32;35147;-79
2023/06/20 10:45:59;;;;;;;;;;;;;;;34.32;24.70;99655.50;4470436;32;34234;-79
2023/06/20 10:48:28;;;;;;;;;;;;;;;34.63;24.42;99660.97;4463715;32;33721;-80
2023/06/20 10:51:00;;;;;;;;;;;;;;;34.45;24.91;99652.25;4472309;32;34148;-78
2023/06/20 10:53:29;;;;;;;;;;;;;;;34.36;25.18;99659.53;4474013;32;34262;-79
2023/06/20 10:55:58;;;;;;;;;;;;;;;34.34;25.83;99655.34;4478029;32;34100;-79
2023/06/20 10:58:27;;;;;;;;;;;;;;;34.39;25.30;99659.19;4465622;32;34337;-78
2023/06/20 11:01:01;;;;;;;;;;;;;;;34.17;26.74;99654.56;4468040;32;34523;-79
2023/06/20 11:03:31;;;;;;;;;;;;;;;34.04;26.76;99649.69;4467957;32;34628;-78
2023/06/20 11:06:01;;;;;;;;;;;;;;;34.22;28.00;99651.37;4474519;32;33967;-79
2023/06/20 11:08:30;;;;;;;;;;;;;;;34.28;26.86;99651.47;4463882;32;32515;-78
2023/06/20 11:11:02;;;;;;;;;;;;;;;34.17;26.98;99646.50;4466368;32;33724;-79
2023/06/20 11:13:31;;;;;;;;;;;;;;;34.38;25.95;99646.75;4469652;32;34059;-81
2023/06/20 11:15:59;;;;;;;;;;;;;;;34.25;26.56;99641.06;4466627;32;34056;-79
2023/06/20 11:18:28;;;;;;;;;;;;;;;34.23;26.74;99636.88;4472434;32;33693;-80
2023/06/20 11:20:58;;;;;;;;;;;;;;;33.71;27.76;99636.31;4465551;32;33980;-81
2023/06/20 11:23:35;;;;;;;;;;;;;;;33.83;26.40;99631.44;4473500;32;33764;-79
2023/06/20 11:26:04;;;;;;;;;;;;;;;34.18;27.69;99632.00;4471856;32;33603;-79
2023/06/20 11:28:33;;;;;;;;;;;;;;;34.59;27.05;99638.06;4478119;32;33833;-80
2023/06/20 11:31:08;;;;;;;;;;;;;;;34.88;27.51;99625.75;4472449;32;33684;-78
2023/06/20 11:33:37;;;;;;;;;;;;;;;35.12;25.60;99623.94;4464611;32;34410;-79
2023/06/20 11:36:06;;;;;;;;;;;;;;;35.23;25.36;99613.56;4467585;32;34699;-79
2023/06/20 11:38:39;;;;;;;;;;;;;;;35.35;25.87;99616.69;4467739;32;33643;-79
2023/06/20 11:41:08;;;;;;;;;;;;;;;35.30;25.71;99616.34;4476040;32;33829;-79
2023/06/20 11:43:40;;;;;;;;;;;;;;;35.50;25.96;99621.22;4473298;32;34011;-80
2023/06/20 11:46:09;;;;;;;;;;;;;;;35.71;26.58;99623.25;4465529;32;34442;-79
2023/06/20 11:48:38;;;;;;;;;;;;;;;35.76;24.75;99624.41;4467382;32;33288;-80
2023/06/20 11:51:07;;;;;;;;;;;;;;;35.74;24.84;99612.09;4480382;32;33800;-79
2023/06/20 11:53:37;;;;;;;;;;;;;;;35.80;23.37;99614.88;4469004;32;35180;-79
2023/06/20 11:56:07;;;;;;;;;;;;;;;36.00;23.25;99617.84;4466456;32;34625;-78
2023/06/20 11:58:40;;;;;;;;;;;;;;;36.10;23.09;99618.47;4466813;32;33089;-79
2023/06/20 12:01:10;;;;;;;;;;;;;;;36.14;22.75;99615.38;4469102;32;34080;-79
2023/06/20 12:03:41;;;;;;;;;;;;;;;35.64;23.75;99610.53;4476325;32;34156;-78
2023/06/20 12:06:29;;;;;;;;;;;;;;;35.48;23.08;99605.25;4472853;32;33483;-79
2023/06/20 12:09:00;;;;;;;;;;;;;;;35.89;23.37;99605.69;4460095;31;33887;-79
2023/06/20 12:11:29;;;;;;;;;;;;;;;36.01;24.09;99597.94;4459902;31;33811;-78
2023/06/20 12:13:57;;;;;;;;;;;;;;;36.58;23.86;99599.09;4463868;32;33931;-79
2023/06/20 12:16:26;;;;;;;;;;;;;;;36.87;22.74;99600.00;4469666;32;33848;-80
2023/06/20 12:18:59;;;;;;;;;;;;;;;37.12;22.86;99597.81;4466918;32;35859;-80
2023/06/20 12:21:29;;;;;;;;;;;;;;;36.96;21.81;99596.16;4467697;32;34513;-80
2023/06/20 12:24:00;;;;;;;;;;;;;;;37.34;21.55;99596.72;4464697;32;34471;-80
2023/06/20 12:26:29;;;;;;;;;;;;;;;37.13;23.01;99589.47;4475639;31;34177;-80
2023/06/20 12:28:57;;;;;;;;;;;;;;;37.50;21.04;99586.62;4466178;32;32950;-78
2023/06/20 12:31:26;;;;;;;;;;;;;;;37.47;21.08;99585.16;4467978;32;33444;-78
2023/06/20 12:33:56;;;;;;;;;;;;;;;37.20;21.27;99583.28;4466135;32;33865;-79
2023/06/20 12:36:25;;;;;;;;;;;;;;;37.23;21.73;99581.03;4467105;32;33860;-79
2023/06/20 12:38:53;;;;;;;;;;;;;;;37.48;21.59;99586.84;4470003;31;34133;-78
2023/06/20 12:41:23;;;;;;;;;;;;;;;37.42;20.06;99582.19;4470891;32;34675;-79
2023/06/20 12:43:52;;;;;;;;;;;;;;;37.38;21.04;99580.91;4474707;32;34382;-78
2023/06/20 12:46:21;;;;;;;;;;;;;;;37.19;20.18;99579.75;4472066;32;33741;-78
2023/06/20 12:48:50;;;;;;;;;;;;;;;37.74;20.83;99577.22;4473448;32;33605;-78
2023/06/20 12:51:18;;;;;;;;;;;;;;;37.81;20.45;99578.09;4469513;32;33906;-78
2023/06/20 12:53:49;;;;;;;;;;;;;;;38.01;21.05;99567.44;4469944;32;33997;-79
2023/06/20 12:56:18;;;;;;;;;;;;;;;38.19;22.11;99573.09;4468306;32;34379;-80
2023/06/20 12:58:48;;;;;;;;;;;;;;;37.98;20.58;99573.19;4476161;32;33248;-78
2023/06/20 13:01:16;;;;;;;;;;;;;;;37.67;20.28;99573.66;4472180;32;32190;-80